Time;durP1;ratioP1;P1;durP2;ratioP2;P2;SDS_P1;SDS_P2;PMS_P1;PMS_P2;Temp;Humidity;BMP_temperature;BMP_pressure;BME280_temperature;BME280_humidity;BME280_pressure;Samples;Min_cycle;Max_cycle;Signal;HPM_P1;HPM_P2
2023/09/15 00:01:00;;;;;;;10.63;8.85;;;11.10;99.90;;;;;;4976743;28;20030;-77
2023/09/15 00:03:26;;;;;;;10.23;8.70;;;11.00;99.90;;;;;;4979236;28;20558;-79
2023/09/15 00:05:52;;;;;;;11.50;9.18;;;11.00;99.90;;;;;;4961832;28;20027;-79
2023/09/15 00:08:18;;;;;;;10.13;8.82;;;11.00;99.90;;;;;;4977160;28;20460;-78
2023/09/15 00:10:46;;;;;;;10.50;9.23;;;11.00;99.90;;;;;;4953963;28;20034;-78
2023/09/15 00:13:11;;;;;;;10.90;8.32;;;10.90;99.90;;;;;;4965445;28;20064;-79
2023/09/15 00:15:37;;;;;;;12.75;8.50;;;10.90;99.90;;;;;;4975813;28;20729;-79
2023/09/15 00:18:03;;;;;;;10.18;8.80;;;10.90;99.90;;;;;;4976874;28;20097;-80
2023/09/15 00:20:30;;;;;;;9.38;8.10;;;10.90;99.90;;;;;;4977370;28;20031;-79
2023/09/15 00:22:56;;;;;;;11.13;8.82;;;10.90;99.90;;;;;;4959275;28;20054;-79
2023/09/15 00:25:27;;;;;;;11.73;9.15;;;10.90;99.90;;;;;;4976030;28;20069;-79
2023/09/15 00:27:56;;;;;;;10.73;8.35;;;10.80;99.90;;;;;;4976224;28;20559;-79
2023/09/15 00:30:23;;;;;;;9.73;8.23;;;10.80;99.90;;;;;;4978733;28;20115;-79
2023/09/15 00:32:50;;;;;;;11.80;8.98;;;10.80;99.90;;;;;;4977843;28;20038;-79
2023/09/15 00:35:17;;;;;;;10.40;8.68;;;10.80;99.90;;;;;;4941377;28;20713;-79
2023/09/15 00:37:45;;;;;;;9.57;8.38;;;10.80;99.90;;;;;;4972022;28;20026;-79
2023/09/15 00:40:13;;;;;;;11.25;8.68;;;10.80;99.90;;;;;;4982987;28;20085;-78
2023/09/15 00:42:40;;;;;;;9.95;8.15;;;10.80;99.90;;;;;;4957409;28;20982;-79
2023/09/15 00:45:09;;;;;;;10.50;8.10;;;10.70;99.90;;;;;;4975562;28;20042;-79
2023/09/15 00:47:38;;;;;;;10.10;7.57;;;10.70;99.90;;;;;;4961699;28;20106;-78
2023/09/15 00:50:05;;;;;;;9.15;7.43;;;10.70;99.90;;;;;;4973934;28;20039;-80
2023/09/15 00:52:33;;;;;;;9.95;8.07;;;10.70;99.90;;;;;;4991623;28;20042;-80
2023/09/15 00:55:00;;;;;;;8.70;7.80;;;10.70;99.90;;;;;;4962635;28;20093;-79
2023/09/15 00:57:27;;;;;;;11.98;8.25;;;10.70;99.90;;;;;;4977089;28;20057;-79
2023/09/15 00:59:53;;;;;;;10.52;8.40;;;10.70;99.90;;;;;;4955688;28;20141;-80
2023/09/15 01:02:20;;;;;;;9.80;7.97;;;10.70;99.90;;;;;;4977301;28;20427;-79
2023/09/15 01:04:47;;;;;;;9.77;7.97;;;10.70;99.90;;;;;;4978728;28;20034;-79
2023/09/15 01:07:13;;;;;;;9.00;8.00;;;10.60;99.90;;;;;;4970654;28;20062;-79
2023/09/15 01:09:39;;;;;;;8.93;7.40;;;10.60;99.90;;;;;;4973047;28;20085;-79
2023/09/15 01:12:07;;;;;;;8.75;7.00;;;10.60;99.90;;;;;;4978411;28;20555;-80
2023/09/15 01:14:34;;;;;;;12.10;8.80;;;10.50;99.90;;;;;;4969220;28;20034;-79
2023/09/15 01:17:18;;;;;;;10.02;7.60;;;10.60;99.90;;;;;;4952982;28;20077;-80
2023/09/15 01:19:53;;;;;;;10.80;8.20;;;10.50;99.90;;;;;;4972368;28;20034;-80
2023/09/15 01:22:22;;;;;;;;;;;10.50;99.90;;;;;;4978975;28;20053;-81
2023/09/15 01:25:09;;;;;;;9.00;7.45;;;10.50;99.90;;;;;;4960927;28;19914;-79
2023/09/15 01:28:04;;;;;;;10.85;8.15;;;10.50;99.90;;;;;;4971005;28;20090;-79
2023/09/15 01:30:31;;;;;;;10.05;8.10;;;10.50;99.90;;;;;;4948549;28;20030;-81
2023/09/15 01:32:59;;;;;;;11.32;7.55;;;10.50;99.90;;;;;;4975858;28;20030;-78
2023/09/15 01:35:25;;;;;;;10.35;8.13;;;10.50;99.90;;;;;;4972850;28;20043;-78
2023/09/15 01:37:51;;;;;;;10.43;7.88;;;10.40;99.90;;;;;;4959086;28;20037;-79
2023/09/15 01:40:17;;;;;;;9.52;7.57;;;10.40;99.90;;;;;;4961263;28;20114;-79
2023/09/15 01:42:46;;;;;;;8.57;7.10;;;10.40;99.90;;;;;;4975606;28;20511;-79
2023/09/15 01:45:12;;;;;;;11.25;8.30;;;10.40;99.90;;;;;;4969934;28;20038;-80
2023/09/15 01:47:39;;;;;;;11.95;8.25;;;10.40;99.90;;;;;;4967356;28;20042;-81
2023/09/15 01:50:07;;;;;;;9.73;7.82;;;10.40;99.90;;;;;;4974020;28;20529;-79
2023/09/15 01:52:33;;;;;;;10.10;7.93;;;10.40;99.90;;;;;;4972387;28;20031;-78
2023/09/15 01:55:02;;;;;;;9.77;7.88;;;10.40;99.90;;;;;;4954910;28;20038;-78
2023/09/15 01:57:29;;;;;;;9.68;7.43;;;10.40;99.90;;;;;;4956407;28;20062;-80
2023/09/15 01:59:58;;;;;;;10.50;7.60;;;10.30;99.90;;;;;;4955783;28;20062;-80
2023/09/15 02:02:24;;;;;;;10.25;7.90;;;10.30;99.90;;;;;;4958336;28;20546;-80
2023/09/15 02:04:49;;;;;;;12.07;8.50;;;10.30;99.90;;;;;;4971730;28;20057;-79
2023/09/15 02:07:15;;;;;;;9.65;7.28;;;10.30;99.90;;;;;;4971095;28;20514;-80
2023/09/15 02:09:41;;;;;;;9.13;7.65;;;10.30;99.90;;;;;;4953617;28;20038;-79
2023/09/15 02:12:07;;;;;;;9.50;7.43;;;10.30;99.90;;;;;;4938850;28;20776;-79
2023/09/15 02:14:51;;;;;;;9.98;7.05;;;10.20;99.90;;;;;;4968617;28;20066;-80
2023/09/15 02:17:17;;;;;;;10.63;7.38;;;10.30;99.90;;;;;;4972892;28;20038;-79
2023/09/15 02:19:43;;;;;;;9.32;7.43;;;10.30;99.90;;;;;;4958469;28;20031;-80
2023/09/15 02:22:09;;;;;;;9.73;7.93;;;10.30;99.90;;;;;;4954444;28;20082;-79
2023/09/15 02:24:34;;;;;;;9.13;7.85;;;10.30;99.90;;;;;;4970221;28;20082;-80
2023/09/15 02:27:00;;;;;;;11.80;8.18;;;10.30;99.90;;;;;;4972042;28;20039;-79
2023/09/15 02:29:26;;;;;;;9.48;7.60;;;10.30;99.90;;;;;;4953189;28;20031;-79
2023/09/15 02:31:52;;;;;;;9.98;8.07;;;10.30;99.90;;;;;;4968532;28;20031;-80
2023/09/15 02:34:18;;;;;;;11.15;8.05;;;10.30;99.90;;;;;;4971171;28;20042;-79
2023/09/15 02:36:44;;;;;;;8.95;7.38;;;10.30;99.90;;;;;;4953113;28;20073;-79
2023/09/15 02:39:10;;;;;;;11.02;7.68;;;10.30;99.90;;;;;;4936897;28;20027;-79
2023/09/15 02:41:36;;;;;;;11.60;8.88;;;10.40;99.90;;;;;;4953419;28;20130;-80
2023/09/15 02:44:03;;;;;;;11.48;9.23;;;10.40;99.90;;;;;;4952401;28;20080;-79
2023/09/15 02:46:29;;;;;;;9.98;8.07;;;10.40;99.90;;;;;;4969959;28;20042;-80
2023/09/15 02:48:56;;;;;;;12.80;8.65;;;10.40;99.90;;;;;;4970192;28;20027;-79
2023/09/15 02:51:22;;;;;;;13.63;8.25;;;10.40;99.90;;;;;;4976818;28;20498;-79
2023/09/15 02:53:47;;;;;;;10.85;8.10;;;10.40;99.90;;;;;;4956744;28;20049;-79
2023/09/15 02:56:14;;;;;;;10.48;7.90;;;10.40;99.90;;;;;;4956700;28;20038;-80
2023/09/15 02:58:40;;;;;;;12.23;8.88;;;10.50;99.90;;;;;;4932351;28;20491;-78
2023/09/15 03:01:13;;;;;;;10.98;7.82;;;10.50;99.90;;;;;;4957994;28;20035;-79
2023/09/15 03:03:39;;;;;;;10.20;7.35;;;10.50;99.90;;;;;;4949631;28;20023;-80
2023/09/15 03:06:06;;;;;;;10.75;7.90;;;10.50;99.90;;;;;;4969955;28;20053;-80
2023/09/15 03:08:35;;;;;;;11.20;8.02;;;10.50;99.90;;;;;;4952387;28;20499;-79
2023/09/15 03:11:01;;;;;;;9.77;7.68;;;10.40;99.90;;;;;;4957527;28;20142;-79
2023/09/15 03:13:27;;;;;;;12.18;8.68;;;10.50;99.90;;;;;;4949468;28;20035;-79
2023/09/15 03:15:54;;;;;;;9.93;8.18;;;10.40;99.90;;;;;;4953203;28;20410;-79
2023/09/15 03:18:19;;;;;;;13.38;8.55;;;10.40;99.90;;;;;;4955046;28;20035;-79
2023/09/15 03:20:46;;;;;;;10.52;7.95;;;10.40;99.90;;;;;;4954513;28;20027;-80
2023/09/15 03:23:12;;;;;;;12.38;8.45;;;10.40;99.90;;;;;;4956995;28;20027;-80
2023/09/15 03:25:37;;;;;;;12.35;8.90;;;10.40;99.90;;;;;;4952666;28;20510;-80
2023/09/15 03:28:03;;;;;;;11.35;8.68;;;10.40;99.90;;;;;;4956353;28;20533;-79
2023/09/15 03:30:29;;;;;;;15.85;9.65;;;10.50;99.90;;;;;;4952809;28;20042;-80
2023/09/15 03:32:55;;;;;;;12.75;9.68;;;10.50;99.90;;;;;;4951985;28;20035;-80
2023/09/15 03:35:21;;;;;;;11.20;8.65;;;10.50;99.90;;;;;;4954171;28;20125;-80
2023/09/15 03:37:47;;;;;;;11.10;8.85;;;10.60;99.90;;;;;;4966047;28;20117;-80
2023/09/15 03:40:13;;;;;;;11.10;8.95;;;10.60;99.90;;;;;;4952550;28;20035;-80
2023/09/15 03:42:39;;;;;;;11.40;8.68;;;10.60;99.90;;;;;;4972985;28;20022;-79
2023/09/15 03:45:09;;;;;;;9.38;7.97;;;10.60;99.90;;;;;;4952151;28;20050;-79
2023/09/15 03:47:35;;;;;;;11.45;8.52;;;10.60;99.90;;;;;;4934419;28;20683;-79
2023/09/15 03:50:02;;;;;;;11.98;8.75;;;10.70;99.90;;;;;;4960600;28;20583;-79
2023/09/15 03:52:31;;;;;;;11.57;8.85;;;10.60;99.90;;;;;;4961407;28;20051;-79
2023/09/15 03:55:00;;;;;;;10.80;7.88;;;10.70;99.90;;;;;;4955258;28;20081;-79
2023/09/15 03:57:28;;;;;;;10.68;8.20;;;10.70;99.90;;;;;;4958767;28;20304;-79
2023/09/15 03:59:56;;;;;;;11.07;8.45;;;10.60;99.90;;;;;;4972774;28;20035;-79
2023/09/15 04:02:22;;;;;;;10.13;8.18;;;10.60;99.90;;;;;;4973406;28;20487;-79
2023/09/15 04:04:47;;;;;;;11.52;8.40;;;10.60;99.90;;;;;;4970511;28;20030;-79
2023/09/15 04:07:13;;;;;;;13.32;8.52;;;10.60;99.90;;;;;;4955339;28;20038;-80
2023/09/15 04:09:39;;;;;;;9.80;7.65;;;10.60;99.90;;;;;;4955291;28;20546;-79
2023/09/15 04:12:05;;;;;;;9.85;7.88;;;10.60;99.90;;;;;;4973955;28;20046;-79
2023/09/15 04:14:34;;;;;;;10.05;7.47;;;10.50;99.90;;;;;;4954693;28;20031;-79
2023/09/15 04:17:03;;;;;;;9.57;7.57;;;10.50;99.90;;;;;;4957208;28;20062;-78
2023/09/15 04:19:30;;;;;;;10.00;7.13;;;10.50;99.90;;;;;;4957222;28;20118;-79
2023/09/15 04:21:57;;;;;;;8.40;7.47;;;10.40;99.90;;;;;;4961286;28;20027;-79
2023/09/15 04:24:24;;;;;;;11.10;8.07;;;10.40;99.90;;;;;;4972473;28;20042;-80
2023/09/15 04:26:50;;;;;;;11.20;8.38;;;10.40;99.90;;;;;;4975866;28;20035;-78
2023/09/15 04:29:16;;;;;;;9.65;7.75;;;10.40;99.90;;;;;;4960707;28;20031;-80
2023/09/15 04:31:42;;;;;;;9.32;7.25;;;10.40;99.90;;;;;;4945660;28;20034;-79
2023/09/15 04:34:08;;;;;;;9.65;7.70;;;10.40;99.90;;;;;;4954681;28;20027;-79
2023/09/15 04:36:34;;;;;;;9.73;7.68;;;10.40;99.90;;;;;;4968646;28;20039;-79
2023/09/15 04:38:59;;;;;;;10.88;8.18;;;10.40;99.90;;;;;;4952311;28;20502;-80
2023/09/15 04:41:26;;;;;;;12.82;9.35;;;10.40;99.90;;;;;;4956147;28;20117;-79
2023/09/15 04:43:53;;;;;;;12.60;8.82;;;10.40;99.90;;;;;;4955211;28;20483;-80
2023/09/15 04:46:19;;;;;;;12.88;8.60;;;10.40;99.90;;;;;;4954794;28;20038;-79
2023/09/15 04:48:45;;;;;;;10.65;8.30;;;10.50;99.90;;;;;;4955343;28;20027;-80
2023/09/15 04:51:11;;;;;;;10.48;7.63;;;10.50;99.90;;;;;;4970520;28;20492;-79
2023/09/15 04:53:37;;;;;;;13.43;8.57;;;10.50;99.90;;;;;;4954698;28;20054;-79
2023/09/15 04:56:03;;;;;;;10.50;7.80;;;10.50;99.90;;;;;;4938160;28;20039;-80
2023/09/15 04:58:30;;;;;;;11.55;8.13;;;10.50;99.90;;;;;;4943410;28;20531;-80
2023/09/15 05:00:59;;;;;;;10.48;8.18;;;10.50;99.90;;;;;;4971988;28;20059;-81
2023/09/15 05:03:26;;;;;;;12.07;8.35;;;10.50;99.90;;;;;;4955120;28;20030;-80
2023/09/15 05:05:52;;;;;;;10.10;7.80;;;10.50;99.90;;;;;;4963035;28;20027;-80
2023/09/15 05:08:19;;;;;;;10.23;8.43;;;10.50;99.90;;;;;;4954192;28;20034;-81
2023/09/15 05:10:49;;;;;;;10.82;8.38;;;10.50;99.90;;;;;;4954505;28;20089;-81
2023/09/15 05:13:14;;;;;;;14.63;9.23;;;10.50;99.90;;;;;;4965740;28;20038;-81
2023/09/15 05:15:40;;;;;;;10.57;7.63;;;10.50;99.90;;;;;;4972101;28;20376;-81
2023/09/15 05:18:06;;;;;;;9.90;7.95;;;10.50;99.90;;;;;;4955366;28;20578;-81
2023/09/15 05:20:33;;;;;;;12.55;8.10;;;10.50;99.90;;;;;;4953858;28;20043;-81
2023/09/15 05:23:01;;;;;;;10.32;7.78;;;10.50;99.90;;;;;;4954841;28;20172;-81
2023/09/15 05:25:26;;;;;;;9.23;7.45;;;10.50;99.90;;;;;;4974271;28;20027;-80
2023/09/15 05:27:53;;;;;;;10.15;7.60;;;10.50;99.90;;;;;;4939639;28;20030;-81
2023/09/15 05:30:19;;;;;;;13.27;7.93;;;10.60;99.90;;;;;;4957639;28;20450;-81
2023/09/15 05:32:45;;;;;;;10.32;7.72;;;10.60;99.90;;;;;;4961940;28;20045;-81
2023/09/15 05:35:11;;;;;;;11.93;8.20;;;10.70;99.90;;;;;;4956043;28;20053;-81
2023/09/15 05:37:37;;;;;;;10.90;8.25;;;10.60;99.90;;;;;;4957990;28;20034;-81
2023/09/15 05:40:03;;;;;;;11.75;8.80;;;10.70;99.90;;;;;;4963612;28;20030;-81
2023/09/15 05:42:29;;;;;;;14.35;8.73;;;10.80;99.90;;;;;;4953148;28;20023;-80
2023/09/15 05:44:54;;;;;;;10.95;8.73;;;10.90;99.90;;;;;;4971610;28;20427;-81
2023/09/15 05:47:23;;;;;;;10.25;8.55;;;10.90;99.90;;;;;;4970214;28;20047;-80
2023/09/15 05:49:49;;;;;;;10.85;6.70;;;11.10;99.90;;;;;;4949371;28;20090;-80
2023/09/15 05:52:15;;;;;;;9.05;6.45;;;11.20;99.90;;;;;;4972776;28;20074;-81
2023/09/15 05:54:41;;;;;;;7.22;5.97;;;11.40;99.90;;;;;;4953977;28;20105;-80
2023/09/15 05:57:06;;;;;;;7.05;5.82;;;11.60;99.90;;;;;;4975281;28;20041;-79
2023/09/15 05:59:32;;;;;;;7.93;6.18;;;11.70;99.90;;;;;;4971400;28;20117;-80
2023/09/15 06:01:58;;;;;;;7.68;5.93;;;11.80;99.90;;;;;;4959605;28;20029;-81
2023/09/15 06:04:23;;;;;;;7.45;6.30;;;11.80;99.90;;;;;;4971040;28;20415;-81
2023/09/15 06:06:49;;;;;;;7.97;6.40;;;11.80;99.90;;;;;;4972227;28;20031;-81
2023/09/15 06:09:15;;;;;;;6.93;5.72;;;11.90;99.90;;;;;;4968848;28;20085;-80
2023/09/15 06:11:41;;;;;;;6.50;5.15;;;12.00;99.90;;;;;;4970212;28;20031;-81
2023/09/15 06:14:06;;;;;;;9.50;5.45;;;12.00;99.90;;;;;;4969126;28;20030;-81
2023/09/15 06:16:34;;;;;;;7.15;6.10;;;12.00;99.90;;;;;;4971502;28;20042;-80
2023/09/15 06:19:01;;;;;;;8.52;5.40;;;12.00;99.90;;;;;;4970985;28;20062;-79
2023/09/15 06:21:27;;;;;;;8.00;5.68;;;12.10;99.90;;;;;;4971529;28;20039;-80
2023/09/15 06:23:53;;;;;;;8.30;5.68;;;12.00;99.90;;;;;;4971283;28;20026;-80
2023/09/15 06:26:18;;;;;;;6.30;5.40;;;12.10;99.90;;;;;;4972588;28;20468;-79
2023/09/15 06:28:44;;;;;;;7.03;5.63;;;12.10;99.90;;;;;;4967150;28;20034;-79
2023/09/15 06:31:10;;;;;;;7.88;5.68;;;12.20;99.90;;;;;;4973665;28;20499;-79
2023/09/15 06:33:35;;;;;;;7.47;5.47;;;12.30;99.90;;;;;;4971577;28;20627;-80
2023/09/15 06:36:02;;;;;;;6.43;5.03;;;12.30;99.90;;;;;;4968187;28;20097;-80
2023/09/15 06:38:28;;;;;;;7.57;5.90;;;12.40;99.90;;;;;;4969576;28;20491;-79
2023/09/15 06:40:54;;;;;;;6.35;5.55;;;12.40;99.90;;;;;;4971536;28;20031;-80
2023/09/15 06:43:21;;;;;;;8.25;5.82;;;12.50;99.90;;;;;;4953095;28;20046;-81
2023/09/15 06:45:47;;;;;;;6.28;5.60;;;12.50;99.90;;;;;;4969762;28;20029;-77
2023/09/15 06:48:12;;;;;;;7.45;6.10;;;12.60;99.90;;;;;;4973340;28;20444;-78
2023/09/15 06:50:38;;;;;;;8.15;5.63;;;12.80;99.90;;;;;;4970449;28;20038;-78
2023/09/15 06:53:04;;;;;;;6.70;5.38;;;13.00;99.90;;;;;;4970199;28;20043;-79
2023/09/15 06:55:30;;;;;;;6.90;5.55;;;13.30;99.90;;;;;;4969937;28;20031;-78
2023/09/15 06:57:56;;;;;;;9.05;6.57;;;13.50;99.90;;;;;;4971969;28;20038;-79
2023/09/15 07:00:22;;;;;;;8.60;6.05;;;13.70;99.90;;;;;;4973118;28;20019;-79
2023/09/15 07:02:48;;;;;;;6.07;5.03;;;13.90;99.90;;;;;;4970691;28;20369;-79
2023/09/15 07:05:13;;;;;;;5.82;4.95;;;14.20;99.90;;;;;;4969331;28;20167;-79
2023/09/15 07:07:39;;;;;;;7.35;5.55;;;14.50;99.90;;;;;;4967888;28;20042;-79
2023/09/15 07:10:06;;;;;;;7.20;5.20;;;14.70;99.90;;;;;;4953587;28;20064;-80
2023/09/15 07:12:32;;;;;;;5.63;4.55;;;14.80;99.90;;;;;;4975518;28;20043;-81
2023/09/15 07:15:00;;;;;;;7.13;5.35;;;14.90;99.90;;;;;;4955397;28;20031;-78
2023/09/15 07:17:26;;;;;;;6.50;5.57;;;15.00;99.90;;;;;;4971452;28;20042;-79
2023/09/15 07:19:52;;;;;;;6.50;5.25;;;15.10;99.90;;;;;;4973821;28;20065;-79
2023/09/15 07:22:17;;;;;;;5.80;5.07;;;15.30;99.90;;;;;;4976477;28;20107;-79
2023/09/15 07:24:43;;;;;;;10.38;6.72;;;15.30;99.90;;;;;;4962064;28;20045;-79
2023/09/15 07:27:09;;;;;;;7.45;5.85;;;15.30;99.90;;;;;;4977845;28;20138;-80
2023/09/15 07:29:36;;;;;;;9.82;6.95;;;15.40;99.90;;;;;;4978701;28;20086;-79
2023/09/15 07:32:03;;;;;;;8.23;7.43;;;15.70;99.90;;;;;;4976206;28;20023;-79
2023/09/15 07:34:29;;;;;;;10.93;7.43;;;16.00;99.90;;;;;;4975405;28;20039;-80
2023/09/15 07:36:54;;;;;;;13.13;8.80;;;16.20;99.90;;;;;;4975782;28;20078;-81
2023/09/15 07:39:20;;;;;;;10.63;6.22;;;16.50;99.90;;;;;;4976639;28;20523;-81
2023/09/15 07:41:46;;;;;;;9.65;6.60;;;16.70;99.90;;;;;;4976716;28;20019;-81
2023/09/15 07:44:13;;;;;;;6.40;4.95;;;17.00;99.90;;;;;;4974703;28;20081;-80
2023/09/15 07:46:39;;;;;;;3.47;3.17;;;17.20;99.90;;;;;;4974809;28;20404;-80
2023/09/15 07:49:05;;;;;;;5.35;3.90;;;17.20;99.90;;;;;;4972776;28;20126;-79
2023/09/15 07:51:32;;;;;;;4.03;3.63;;;17.10;99.90;;;;;;4975912;28;20049;-81
2023/09/15 07:53:58;;;;;;;3.92;3.20;;;17.10;99.90;;;;;;4979865;28;20121;-79
2023/09/15 07:56:24;;;;;;;5.22;3.60;;;17.20;99.90;;;;;;4964592;28;20046;-81
2023/09/15 07:58:51;;;;;;;3.30;2.97;;;17.30;99.90;;;;;;4976195;28;20517;-79
2023/09/15 08:01:18;;;;;;;3.50;2.67;;;17.40;99.90;;;;;;4975321;28;20105;-77
2023/09/15 08:03:44;;;;;;;3.33;3.03;;;17.50;99.90;;;;;;4973314;28;20030;-80
2023/09/15 08:06:11;;;;;;;6.65;2.80;;;17.60;99.90;;;;;;4973267;28;20031;-79
2023/09/15 08:08:37;;;;;;;6.22;3.00;;;17.60;99.90;;;;;;4970962;28;20035;-80
2023/09/15 08:11:03;;;;;;;3.92;2.90;;;17.60;99.90;;;;;;4976142;28;20093;-80
2023/09/15 08:13:29;;;;;;;3.28;2.55;;;17.80;99.90;;;;;;4978013;28;20036;-79
2023/09/15 08:15:55;;;;;;;3.25;2.75;;;17.90;99.90;;;;;;4980594;28;20470;-79
2023/09/15 08:18:22;;;;;;;3.00;2.50;;;18.10;99.90;;;;;;4973106;28;20121;-78
2023/09/15 08:20:48;;;;;;;4.50;3.03;;;18.20;99.90;;;;;;4973390;28;20027;-80
2023/09/15 08:23:14;;;;;;;3.53;2.40;;;18.40;99.90;;;;;;4978233;28;20141;-79
2023/09/15 08:25:40;;;;;;;3.38;2.80;;;18.30;99.90;;;;;;4954050;28;20466;-79
2023/09/15 08:28:06;;;;;;;2.75;2.53;;;18.40;99.90;;;;;;4976662;28;20042;-80
2023/09/15 08:30:33;;;;;;;3.00;2.70;;;18.50;99.90;;;;;;4972637;28;20031;-79
2023/09/15 08:33:00;;;;;;;3.40;2.47;;;18.50;99.90;;;;;;4975002;28;20034;-79
2023/09/15 08:35:26;;;;;;;2.90;2.50;;;18.50;99.90;;;;;;4973725;28;20042;-78
2023/09/15 08:37:52;;;;;;;2.65;2.30;;;18.50;99.90;;;;;;4975772;28;20062;-79
2023/09/15 08:40:21;;;;;;;2.85;2.63;;;18.60;99.90;;;;;;4976421;28;20027;-78
2023/09/15 08:42:47;;;;;;;2.35;2.15;;;18.60;99.90;;;;;;4973579;28;20031;-80
2023/09/15 08:45:14;;;;;;;4.13;2.75;;;18.60;99.90;;;;;;4975639;28;20117;-78
2023/09/15 08:47:45;;;;;;;3.35;2.70;;;18.60;99.90;;;;;;4972574;28;20026;-81
2023/09/15 08:50:11;;;;;;;2.85;2.50;;;18.60;99.90;;;;;;4972245;28;20039;-79
2023/09/15 08:52:37;;;;;;;2.97;2.25;;;18.70;99.90;;;;;;4973056;28;20027;-80
2023/09/15 08:55:04;;;;;;;3.83;2.35;;;18.70;99.90;;;;;;4972159;28;20058;-80
2023/09/15 08:57:30;;;;;;;2.80;2.40;;;18.80;99.90;;;;;;4971423;28;20075;-79
2023/09/15 08:59:57;;;;;;;2.80;2.60;;;18.90;99.90;;;;;;4977806;28;20014;-78
2023/09/15 09:02:24;;;;;;;2.97;2.30;;;18.90;99.90;;;;;;4973951;28;20089;-81
2023/09/15 09:04:53;;;;;;;4.38;2.45;;;19.00;99.90;;;;;;4972709;28;20665;-78
2023/09/15 09:07:22;;;;;;;2.85;2.50;;;19.00;99.90;;;;;;4941798;28;20027;-79
2023/09/15 09:09:48;;;;;;;2.70;2.50;;;19.00;99.90;;;;;;4976052;28;20090;-80
2023/09/15 09:12:14;;;;;;;3.42;2.70;;;19.00;99.90;;;;;;4975855;28;20045;-80
2023/09/15 09:14:41;;;;;;;3.47;2.40;;;18.90;99.90;;;;;;4975832;28;20049;-79
2023/09/15 09:17:08;;;;;;;2.85;2.55;;;18.70;99.90;;;;;;4971488;28;20039;-78
2023/09/15 09:19:38;;;;;;;3.25;2.60;;;18.70;99.90;;;;;;4969620;28;20066;-80
2023/09/15 09:22:07;;;;;;;3.20;2.67;;;18.80;99.90;;;;;;4974650;28;20039;-80
2023/09/15 09:24:35;;;;;;;3.38;2.88;;;18.90;99.90;;;;;;4971471;28;20411;-78
2023/09/15 09:27:01;;;;;;;4.45;2.72;;;19.00;99.90;;;;;;4956886;28;20159;-79
2023/09/15 09:29:28;;;;;;;3.15;2.60;;;19.00;99.90;;;;;;4970881;28;20030;-79
2023/09/15 09:31:55;;;;;;;4.28;3.03;;;19.00;99.90;;;;;;4969979;28;20054;-81
2023/09/15 09:34:21;;;;;;;3.13;2.83;;;18.90;99.90;;;;;;4972762;28;20077;-78
2023/09/15 09:36:50;;;;;;;3.20;2.90;;;19.00;99.90;;;;;;4972229;28;20034;-79
2023/09/15 09:39:16;;;;;;;3.58;3.08;;;19.10;99.90;;;;;;4974109;28;20034;-79
2023/09/15 09:42:02;;;;;;;5.43;2.75;;;19.10;99.90;;;;;;4974453;28;20085;-79
2023/09/15 09:44:29;;;;;;;3.60;3.30;;;19.30;99.90;;;;;;4975187;28;20441;-78
2023/09/15 09:46:57;;;;;;;3.58;3.08;;;19.30;99.90;;;;;;4969121;28;20045;-79
2023/09/15 09:49:23;;;;;;;6.60;3.30;;;19.40;99.90;;;;;;4953754;28;20456;-79
2023/09/15 09:51:52;;;;;;;3.65;2.83;;;19.60;99.90;;;;;;4974485;28;20065;-79
2023/09/15 09:54:18;;;;;;;3.58;2.67;;;19.60;99.90;;;;;;4939442;28;20420;-80
2023/09/15 09:56:50;;;;;;;6.38;3.28;;;19.70;99.90;;;;;;4956011;28;20034;-81
2023/09/15 09:59:16;;;;;;;5.50;3.28;;;19.70;99.90;;;;;;4967939;28;20835;-81
2023/09/15 10:01:42;;;;;;;4.40;2.72;;;19.70;99.90;;;;;;4972218;28;20038;-79
2023/09/15 10:04:08;;;;;;;4.55;3.22;;;19.80;99.90;;;;;;4970877;28;20538;-80
2023/09/15 10:06:36;;;;;;;3.10;2.80;;;19.80;99.90;;;;;;4971188;28;20065;-79
2023/09/15 10:09:05;;;;;;;4.80;2.90;;;19.70;99.90;;;;;;4976103;28;20035;-79
2023/09/15 10:11:35;;;;;;;3.67;3.05;;;19.70;99.90;;;;;;4974953;28;20542;-78
2023/09/15 10:14:04;;;;;;;4.78;2.53;;;19.80;99.90;;;;;;4972703;28;20042;-79
2023/09/15 10:16:32;;;;;;;6.55;3.42;;;20.00;99.90;;;;;;4970599;28;20102;-78
2023/09/15 10:19:00;;;;;;;3.65;2.70;;;20.00;99.90;;;;;;4971390;28;20034;-79
2023/09/15 10:21:27;;;;;;;3.33;3.00;;;20.10;99.90;;;;;;4975717;28;20053;-79
2023/09/15 10:24:04;;;;;;;3.30;2.80;;;20.20;99.90;;;;;;4974101;28;20031;-79
2023/09/15 10:26:51;;;;;;;3.15;2.58;;;20.30;99.90;;;;;;4972094;28;20108;-78
2023/09/15 10:29:16;;;;;;;3.92;2.80;;;20.30;99.90;;;;;;4966407;28;20041;-80
2023/09/15 10:31:45;;;;;;;2.90;2.60;;;20.30;99.90;;;;;;4971552;28;20491;-79
2023/09/15 10:34:11;;;;;;;3.90;3.05;;;20.30;99.90;;;;;;4974977;28;20133;-79
2023/09/15 10:36:39;;;;;;;4.22;3.10;;;20.30;99.90;;;;;;4968548;28;20368;-80
2023/09/15 10:39:17;;;;;;;3.60;3.30;;;20.40;99.90;;;;;;4970067;28;20110;-80
2023/09/15 10:41:44;;;;;;;3.05;2.85;;;20.40;99.90;;;;;;4970394;28;20041;-80
2023/09/15 10:44:13;;;;;;;3.80;2.92;;;20.60;99.90;;;;;;4978967;28;20061;-81
2023/09/15 10:46:40;;;;;;;3.08;2.60;;;20.70;99.90;;;;;;4971048;28;20031;-79
2023/09/15 10:49:20;;;;;;;3.28;2.97;;;20.80;99.90;;;;;;4978695;28;20041;-81
2023/09/15 10:52:00;;;;;;;6.20;3.20;;;20.90;99.90;;;;;;4978674;28;20034;-81
2023/09/15 10:54:35;;;;;;;5.68;2.85;;;21.00;99.90;;;;;;4968414;28;20680;-81
2023/09/15 10:57:01;;;;;;;;;;;21.00;99.90;;;;;;4973093;28;20081;-80
2023/09/15 10:59:27;;;;;;;;;;;21.00;99.90;;;;;;4973621;28;19957;-80
2023/09/15 11:01:54;;;;;;;5.57;3.15;;;20.90;99.90;;;;;;4976673;28;19914;-81
2023/09/15 11:04:25;;;;;;;3.72;3.20;;;21.00;99.90;;;;;;4964355;28;20446;-81
2023/09/15 11:06:52;;;;;;;3.30;2.75;;;20.90;99.90;;;;;;4959933;28;20114;-82
2023/09/15 11:09:19;;;;;;;3.53;3.22;;;20.90;99.90;;;;;;4953669;28;20125;-83
2023/09/15 11:11:50;;;;;;;3.95;2.97;;;20.90;99.90;;;;;;4973111;28;20054;-80
2023/09/15 11:14:21;;;;;;;4.15;3.33;;;21.00;99.90;;;;;;4975728;28;20245;-82
2023/09/15 11:16:51;;;;;;;5.88;3.00;;;21.00;99.90;;;;;;4971659;28;20802;-82
2023/09/15 11:19:18;;;;;;;4.30;2.80;;;21.10;99.90;;;;;;4953306;28;20046;-83
2023/09/15 11:21:47;;;;;;;3.25;2.92;;;21.10;99.40;;;;;;4977411;28;20586;-81
2023/09/15 11:24:14;;;;;;;2.95;2.60;;;21.20;99.90;;;;;;4972500;28;20050;-80
2023/09/15 11:26:51;;;;;;;4.53;3.13;;;21.20;99.90;;;;;;4970806;28;20026;-82
2023/09/15 11:29:29;;;;;;;3.10;2.80;;;21.20;99.90;;;;;;4971927;28;20053;-81
2023/09/15 11:31:56;;;;;;;2.90;2.60;;;21.20;99.50;;;;;;4977083;28;20035;-82
2023/09/15 11:34:22;;;;;;;2.47;2.25;;;21.40;99.40;;;;;;4973250;28;20986;-80
2023/09/15 11:36:50;;;;;;;3.55;3.00;;;21.50;98.70;;;;;;4970918;28;20495;-82
2023/09/15 11:39:16;;;;;;;3.03;2.58;;;21.50;98.40;;;;;;4967900;28;20030;-82
2023/09/15 11:41:55;;;;;;;2.88;2.53;;;21.50;98.40;;;;;;4972492;28;20487;-80
2023/09/15 11:44:31;;;;;;;3.70;2.72;;;21.40;97.60;;;;;;4955166;28;20518;-80
2023/09/15 11:47:02;;;;;;;2.50;2.30;;;21.40;97.80;;;;;;4974269;28;20031;-81
2023/09/15 11:49:29;;;;;;;3.60;2.38;;;21.50;98.10;;;;;;4972480;28;20045;-81
2023/09/15 11:51:57;;;;;;;3.97;2.70;;;21.70;97.60;;;;;;4953107;28;20102;-83
2023/09/15 11:54:24;;;;;;;4.20;2.70;;;21.80;98.10;;;;;;4968804;28;20089;-79
2023/09/15 11:56:51;;;;;;;3.17;2.22;;;22.10;98.50;;;;;;4969945;28;20023;-79
2023/09/15 11:59:17;;;;;;;4.07;2.75;;;22.20;98.20;;;;;;4970148;28;20041;-78
2023/09/15 12:01:45;;;;;;;2.63;2.20;;;22.30;96.10;;;;;;4957321;28;20027;-78
2023/09/15 12:04:12;;;;;;;5.00;2.42;;;22.40;95.20;;;;;;4973000;28;20059;-79
2023/09/15 12:06:40;;;;;;;2.65;1.98;;;22.30;94.70;;;;;;4970797;28;20031;-80
2023/09/15 12:09:06;;;;;;;2.40;2.20;;;22.10;94.40;;;;;;4959642;28;20443;-80
2023/09/15 12:11:33;;;;;;;2.30;2.10;;;22.10;94.70;;;;;;4974272;28;20058;-79
2023/09/15 12:14:06;;;;;;;3.17;2.88;;;22.30;94.80;;;;;;4973134;28;20034;-79
2023/09/15 12:16:32;;;;;;;2.70;2.50;;;22.30;93.70;;;;;;4975157;28;20037;-80
2023/09/15 12:19:00;;;;;;;5.68;2.78;;;22.40;94.80;;;;;;4961749;28;20110;-79
2023/09/15 12:21:28;;;;;;;3.22;2.60;;;22.40;93.70;;;;;;4976249;28;20065;-78
2023/09/15 12:23:55;;;;;;;2.30;2.10;;;22.40;95.40;;;;;;4975326;28;20129;-80
2023/09/15 12:26:24;;;;;;;4.40;2.53;;;22.50;94.70;;;;;;4941969;28;20135;-79
2023/09/15 12:28:50;;;;;;;3.38;2.10;;;22.40;92.90;;;;;;4955883;28;20034;-78
2023/09/15 12:31:18;;;;;;;3.88;2.50;;;22.40;93.90;;;;;;4975729;28;20126;-79
2023/09/15 12:33:54;;;;;;;2.20;2.00;;;22.60;94.50;;;;;;4954809;28;20041;-78
2023/09/15 12:36:21;;;;;;;4.35;2.40;;;22.70;95.30;;;;;;4969266;28;20104;-79
2023/09/15 12:38:48;;;;;;;2.47;2.00;;;23.00;94.90;;;;;;4968501;28;20035;-80
2023/09/15 12:41:36;;;;;;;4.18;2.17;;;23.10;92.70;;;;;;4974841;28;20050;-80
2023/09/15 12:44:04;;;;;;;2.17;1.98;;;23.10;91.70;;;;;;4954071;28;20039;-78